Time;durP1;ratioP1;P1;durP2;ratioP2;P2;SDS_P1;SDS_P2;PMS_P1;PMS_P2;Temp;Humidity;BMP_temperature;BMP_pressure;BME280_temperature;BME280_humidity;BME280_pressure;Samples;Min_cycle;Max_cycle;Signal;HPM_P1;HPM_P2
2021/12/15 00:00:48;;;;;;;;;;;;;;;;;;5082246;28;1281;-79
2021/12/15 00:03:16;;;;;;;;;;;;;;;;;;5066542;28;1132;-79
2021/12/15 00:05:42;;;;;;;;;;;;;;;;;;5064294;28;1180;-79
2021/12/15 00:08:11;;;;;;;;;;;;;;;;;;5074171;28;1188;-78
2021/12/15 00:10:36;;;;;;;;;;;;;;;;;;5085146;28;1154;-79
2021/12/15 00:13:01;;;;;;;;;;;;;;;;;;5085877;28;1486;-79
2021/12/15 00:15:28;;;;;;;;;;;;;;;;;;5084142;28;1941;-79
2021/12/15 00:17:54;;;;;;;;;;;;;;;;;;5089196;28;1194;-79
2021/12/15 00:20:19;;;;;;;;;;;;;;;;;;5082750;28;1420;-79
2021/12/15 00:22:45;;;;;;;;;;;;;;;;;;5068778;28;1203;-79
2021/12/15 00:25:12;;;;;;;;;;;;;;;;;;5075002;28;1361;-79
2021/12/15 00:27:37;;;;;;;;;;;;;;;;;;5071630;28;1199;-79
2021/12/15 00:30:04;;;;;;;;;;;;;;;;;;5086196;28;1548;-79
2021/12/15 00:32:30;;;;;;;;;;;;;;;;;;5085535;28;1307;-79
2021/12/15 00:34:55;;;;;;;;;;;;;;;;;;5062174;28;1981;-78
2021/12/15 00:37:26;;;;;;;;;;;;;;;;;;5067600;28;1384;-79
2021/12/15 00:39:52;;;;;;;;;;;;;;;;;;5086486;28;1180;-79
2021/12/15 00:42:17;;;;;;;;;;;;;;;;;;5086468;28;1160;-79
2021/12/15 00:44:43;;;;;;;;;;;;;;;;;;5082225;28;1156;-79
2021/12/15 00:47:09;;;;;;;;;;;;;;;;;;5067299;28;1151;-79
2021/12/15 00:49:34;;;;;;;;;;;;;;;;;;5061172;28;1121;-79
2021/12/15 00:51:59;;;;;;;;;;;;;;;;;;5067193;28;1144;-80
2021/12/15 00:54:28;;;;;;;;;;;;;;;;;;5066642;28;1890;-80
2021/12/15 00:56:54;;;;;;;;;;;;;;;;;;5066914;28;1180;-78
2021/12/15 00:59:27;;;;;;;;;;;;;;;;;;5065153;28;1166;-79
2021/12/15 01:01:53;;;;;;;;;;;;;;;;;;5066562;28;1390;-78
2021/12/15 01:04:20;;;;;;;;;;;;;;;;;;5075496;28;1182;-79
2021/12/15 01:06:48;;;;;;;;;;;;;;;;;;5063078;28;1110;-79
2021/12/15 01:09:18;;;;;;;;;;;;;;;;;;5080013;28;1302;-80
2021/12/15 01:20:08;;;;;;;;;;;;;;;;;;5063820;28;989;-80
2021/12/15 01:22:36;;;;;;;;;;;;;;;;;;5067327;28;1258;-79
2021/12/15 01:25:05;;;;;;;;;;;;;;;;;;5065655;28;1263;-79
2021/12/15 01:27:31;;;;;;;;;;;;;;;;;;5063410;28;1134;-78
2021/12/15 01:29:56;;;;;;;;;;;;;;;;;;5064976;28;1156;-79
2021/12/15 01:32:22;;;;;;;;;;;;;;;;;;5070986;28;1623;-79
2021/12/15 01:34:47;;;;;;;;;;;;;;;;;;5071293;28;1906;-79
2021/12/15 01:37:12;;;;;;;;;;;;;;;;;;5077343;28;1340;-79
2021/12/15 01:39:38;;;;;;;;;;;;;;;;;;5070420;28;1215;-79
2021/12/15 01:42:04;;;;;;;;;;;;;;;;;;5066824;28;1535;-78
2021/12/15 01:47:01;;;;;;;;;;;;;;;;;;5067246;28;1132;-80
2021/12/15 01:49:36;;;;;;;;;;;;;;;;;;5061139;28;1175;-79
2021/12/15 01:52:22;;;;;;;;;;;;;;;;;;5065158;28;1199;-79
2021/12/15 01:54:55;;;;;;;;;;;;;;;;;;5075652;28;1881;-79
2021/12/15 01:57:22;;;;;;;;;;;;;;;;;;5084283;28;1219;-78
2021/12/15 01:59:49;;;;;;;;;;;;;;;;;;5081928;28;1392;-79
2021/12/15 02:02:16;;;;;;;;;;;;;;;;;;5071609;28;1116;-79
2021/12/15 02:04:42;;;;;;;;;;;;;;;;;;5067988;28;1233;-80
2021/12/15 02:07:08;;;;;;;;;;;;;;;;;;5078426;28;1184;-79
2021/12/15 02:12:12;;;;;;;;;;;;;;;;;;5071367;28;1250;-79
2021/12/15 02:14:37;;;;;;;;;;;;;;;;;;5063802;28;1906;-79
2021/12/15 02:17:03;;;;;;;;;;;;;;;;;;5086043;28;1248;-79
2021/12/15 02:19:34;;;;;;;;;;;;;;;;;;5080778;28;1395;-79
2021/12/15 02:21:59;;;;;;;;;;;;;;;;;;5071568;28;1178;-79
2021/12/15 02:24:25;;;;;;;;;;;;;;;;;;5070754;28;1254;-80
2021/12/15 02:26:57;;;;;;;;;;;;;;;;;;5061895;28;1316;-79
2021/12/15 02:29:23;;;;;;;;;;;;;;;;;;5047992;28;1336;-79
2021/12/15 02:34:43;;;;;;;;;;;;;;;;;;5081081;28;1921;-78
2021/12/15 02:37:18;;;;;;;;;;;;;;;;;;5085755;28;1205;-80
2021/12/15 02:39:48;;;;;;;;;;;;;;;;;;5083075;28;1355;-79
2021/12/15 02:42:14;;;;;;;;;;;;;;;;;;5084435;28;1236;-80
2021/12/15 02:44:43;;;;;;;;;;;;;;;;;;5064120;28;1304;-79
2021/12/15 02:47:09;;;;;;;;;;;;;;;;;;5084250;28;1199;-79
2021/12/15 02:49:35;;;;;;;;;;;;;;;;;;5049301;28;1270;-79
2021/12/15 02:52:00;;;;;;;;;;;;;;;;;;5084121;28;1229;-79
2021/12/15 02:54:26;;;;;;;;;;;;;;;;;;5066337;28;1901;-79
2021/12/15 02:56:53;;;;;;;;;;;;;;;;;;5062258;28;1306;-79
2021/12/15 02:59:30;;;;;;;;;;;;;;;;;;5068217;28;1206;-78
2021/12/15 03:02:05;;;;;;;;;;;;;;;;;;5066550;28;1371;-79
2021/12/15 03:04:43;;;;;;;;;;;;;;;;;;5063870;28;1217;-78
2021/12/15 03:07:26;;;;;;;;;;;;;;;;;;5069051;28;1172;-78
2021/12/15 03:15:38;;;;;;;;;;;;;;;;;;5068579;28;1902;-79
2021/12/15 03:18:17;;;;;;;;;;;;;;;;;;5066819;28;1222;-79
2021/12/15 03:20:49;;;;;;;;;;;;;;;;;;5063727;28;1372;-79
2021/12/15 03:23:18;;;;;;;;;;;;;;;;;;5068515;28;1156;-78
2021/12/15 03:25:44;;;;;;;;;;;;;;;;;;5078505;28;1202;-79
2021/12/15 03:33:54;;;;;;;;;;;;;;;;;;5084283;28;1082;-78
2021/12/15 03:36:37;;;;;;;;;;;;;;;;;;5070743;28;1937;-79
2021/12/15 03:39:07;;;;;;;;;;;;;;;;;;5086396;28;1114;-79
2021/12/15 03:41:33;;;;;;;;;;;;;;;;;;5084248;28;1356;-79
2021/12/15 03:43:58;;;;;;;;;;;;;;;;;;5066588;28;1222;-79
2021/12/15 03:46:24;;;;;;;;;;;;;;;;;;5066811;28;1128;-79
2021/12/15 03:48:49;;;;;;;;;;;;;;;;;;5063086;28;1217;-79
2021/12/15 03:51:14;;;;;;;;;;;;;;;;;;5058232;28;1459;-79
2021/12/15 03:53:40;;;;;;;;;;;;;;;;;;5049205;28;1320;-79
2021/12/15 03:56:08;;;;;;;;;;;;;;;;;;5065777;28;1953;-79
2021/12/15 03:58:33;;;;;;;;;;;;;;;;;;5066125;28;1164;-80
2021/12/15 04:01:04;;;;;;;;;;;;;;;;;;5049232;28;1219;-79
2021/12/15 04:03:33;;;;;;;;;;;;;;;;;;5082122;28;1290;-79
2021/12/15 04:06:01;;;;;;;;;;;;;;;;;;5084109;28;1097;-79
2021/12/15 04:08:26;;;;;;;;;;;;;;;;;;5085478;28;1179;-79
2021/12/15 04:10:52;;;;;;;;;;;;;;;;;;5087034;28;1365;-79
2021/12/15 04:13:17;;;;;;;;;;;;;;;;;;5086073;28;1164;-79
2021/12/15 04:15:46;;;;;;;;;;;;;;;;;;5067874;28;1961;-78
2021/12/15 04:18:15;;;;;;;;;;;;;;;;;;5077656;28;1243;-79
2021/12/15 04:20:43;;;;;;;;;;;;;;;;;;5064107;28;1313;-79
2021/12/15 04:23:10;;;;;;;;;;;;;;;;;;5081252;28;1360;-79
2021/12/15 04:25:36;;;;;;;;;;;;;;;;;;5087290;28;1182;-78
2021/12/15 04:28:02;;;;;;;;;;;;;;;;;;5085641;28;1027;-79
2021/12/15 04:30:28;;;;;;;;;;;;;;;;;;5086884;28;1565;-78
2021/12/15 04:32:54;;;;;;;;;;;;;;;;;;5083687;28;1437;-78
2021/12/15 04:35:22;;;;;;;;;;;;;;;;;;5073128;28;1972;-79
2021/12/15 04:37:49;;;;;;;;;;;;;;;;;;5048745;28;1218;-78
2021/12/15 04:40:16;;;;;;;;;;;;;;;;;;5086074;28;1211;-79
2021/12/15 04:42:45;;;;;;;;;;;;;;;;;;5069574;28;1231;-79
2021/12/15 04:45:12;;;;;;;;;;;;;;;;;;5066253;28;1202;-79
2021/12/15 04:47:45;;;;;;;;;;;;;;;;;;5073070;28;1132;-79
2021/12/15 04:50:11;;;;;;;;;;;;;;;;;;5062229;28;1191;-79
2021/12/15 04:52:37;;;;;;;;;;;;;;;;;;5066772;28;1152;-79
2021/12/15 04:55:03;;;;;;;;;;;;;;;;;;5067596;28;1891;-79
2021/12/15 04:57:28;;;;;;;;;;;;;;;;;;5063249;28;1135;-79
2021/12/15 04:59:54;;;;;;;;;;;;;;;;;;5045522;28;1401;-78
2021/12/15 05:02:20;;;;;;;;;;;;;;;;;;5065447;28;1330;-78
2021/12/15 05:04:49;;;;;;;;;;;;;;;;;;5058248;28;1198;-78
2021/12/15 05:07:15;;;;;;;;;;;;;;;;;;5086455;28;1183;-78
2021/12/15 05:09:41;;;;;;;;;;;;;;;;;;5064900;28;1163;-79
2021/12/15 05:12:06;;;;;;;;;;;;;;;;;;5063675;28;1202;-79
2021/12/15 05:14:32;;;;;;;;;;;;;;;;;;5079105;28;1959;-79
2021/12/15 05:16:57;;;;;;;;;;;;;;;;;;5083897;28;1199;-78
2021/12/15 05:19:24;;;;;;;;;;;;;;;;;;5062095;28;1399;-79
2021/12/15 05:21:51;;;;;;;;;;;;;;;;;;5084554;28;1250;-79
2021/12/15 05:26:57;;;;;;;;;;;;;;;;;;5082050;28;1063;-79
2021/12/15 05:29:22;;;;;;;;;;;;;;;;;;5084074;28;1217;-79
2021/12/15 05:31:48;;;;;;;;;;;;;;;;;;5083598;28;1319;-78
2021/12/15 05:34:16;;;;;;;;;;;;;;;;;;5063713;28;1182;-79
2021/12/15 05:36:42;;;;;;;;;;;;;;;;;;5066204;28;1914;-78
2021/12/15 05:39:08;;;;;;;;;;;;;;;;;;5046107;28;1231;-79
2021/12/15 05:41:34;;;;;;;;;;;;;;;;;;5077070;28;1317;-79
2021/12/15 05:43:59;;;;;;;;;;;;;;;;;;5082506;28;1307;-78
2021/12/15 05:46:25;;;;;;;;;;;;;;;;;;5083166;28;1190;-78
2021/12/15 05:48:50;;;;;;;;;;;;;;;;;;5064033;28;1301;-78
2021/12/15 05:51:16;;;;;;;;;;;;;;;;;;5065750;28;1368;-79
2021/12/15 05:53:41;;;;;;;;;;;;;;;;;;5079245;28;1415;-79
2021/12/15 05:56:06;;;;;;;;;;;;;;;;;;5064741;28;1963;-79
2021/12/15 05:58:32;;;;;;;;;;;;;;;;;;5064624;28;1235;-79
2021/12/15 06:00:57;;;;;;;;;;;;;;;;;;5066531;28;1277;-79
2021/12/15 06:03:23;;;;;;;;;;;;;;;;;;5084685;28;1198;-79
2021/12/15 06:05:51;;;;;;;;;;;;;;;;;;5081979;28;1409;-78
2021/12/15 06:08:17;;;;;;;;;;;;;;;;;;5068430;28;1323;-79
2021/12/15 06:10:43;;;;;;;;;;;;;;;;;;5069179;28;1427;-79
2021/12/15 06:13:10;;;;;;;;;;;;;;;;;;5080977;28;1191;-78
2021/12/15 06:15:36;;;;;;;;;;;;;;;;;;5085297;28;1949;-79
2021/12/15 06:18:05;;;;;;;;;;;;;;;;;;5065631;28;1204;-78
2021/12/15 06:20:31;;;;;;;;;;;;;;;;;;5061835;28;1018;-79
2021/12/15 06:22:59;;;;;;;;;;;;;;;;;;5061558;28;1251;-78
2021/12/15 06:25:24;;;;;;;;;;;;;;;;;;5051871;28;1301;-79
2021/12/15 06:27:52;;;;;;;;;;;;;;;;;;5066863;28;1231;-78
2021/12/15 06:30:18;;;;;;;;;;;;;;;;;;5064345;28;1199;-79
2021/12/15 06:32:46;;;;;;;;;;;;;;;;;;5067974;28;1124;-78
2021/12/15 06:35:11;;;;;;;;;;;;;;;;;;5061461;28;2086;-78
2021/12/15 06:37:37;;;;;;;;;;;;;;;;;;5068250;28;1170;-79
2021/12/15 06:40:07;;;;;;;;;;;;;;;;;;5067280;28;1069;-78
2021/12/15 06:42:36;;;;;;;;;;;;;;;;;;5083546;28;1080;-78
2021/12/15 06:45:01;;;;;;;;;;;;;;;;;;5084954;28;1323;-78
2021/12/15 06:58:24;;;;;;;;;;;;;;;;;;5085889;28;1182;-79
2021/12/15 07:00:58;;;;;;;;;;;;;;;;;;5065749;28;1479;-79
2021/12/15 07:03:23;;;;;;;;;;;;;;;;;;5063958;28;1300;-78
2021/12/15 07:05:50;;;;;;;;;;;;;;;;;;5064252;28;1159;-79
2021/12/15 07:08:15;;;;;;;;;;;;;;;;;;5048509;28;1211;-78
2021/12/15 07:10:43;;;;;;;;;;;;;;;;;;5066049;28;1195;-78
2021/12/15 07:13:09;;;;;;;;;;;;;;;;;;5064009;28;1191;-79
2021/12/15 07:15:36;;;;;;;;;;;;;;;;;;5049087;28;1948;-78
2021/12/15 07:18:05;;;;;;;;;;;;;;;;;;5066701;28;1206;-78
2021/12/15 07:23:00;;;;;;;;;;;;;;;;;;5066801;28;1188;-77
2021/12/15 07:25:25;;;;;;;;;;;;;;;;;;5067146;28;1100;-79
2021/12/15 07:27:51;;;;;;;;;;;;;;;;;;5065545;28;1299;-79
2021/12/15 07:30:16;;;;;;;;;;;;;;;;;;5075485;28;1183;-79
2021/12/15 07:32:41;;;;;;;;;;;;;;;;;;5081141;28;1242;-80
2021/12/15 07:35:07;;;;;;;;;;;;;;;;;;5060927;28;1922;-79
2021/12/15 07:37:33;;;;;;;;;;;;;;;;;;5067211;28;1184;-80
2021/12/15 07:39:59;;;;;;;;;;;;;;;;;;5061817;28;1292;-79
2021/12/15 07:42:41;;;;;;;;;;;;;;;;;;5083752;28;1182;-79
2021/12/15 07:45:07;;;;;;;;;;;;;;;;;;5085480;28;1020;-81
2021/12/15 07:47:32;;;;;;;;;;;;;;;;;;5087903;28;1109;-81
2021/12/15 07:50:01;;;;;;;;;;;;;;;;;;5079822;28;1254;-78
2021/12/15 07:52:26;;;;;;;;;;;;;;;;;;5087760;28;1044;-78
2021/12/15 07:54:51;;;;;;;;;;;;;;;;;;5086105;28;1885;-78
2021/12/15 07:57:19;;;;;;;;;;;;;;;;;;5082740;28;1190;-77
2021/12/15 07:59:44;;;;;;;;;;;;;;;;;;5075760;28;1179;-79
2021/12/15 08:02:09;;;;;;;;;;;;;;;;;;5067688;28;1152;-78
2021/12/15 08:04:35;;;;;;;;;;;;;;;;;;5060703;28;1211;-78
2021/12/15 08:07:00;;;;;;;;;;;;;;;;;;5064820;28;1307;-77
2021/12/15 08:09:25;;;;;;;;;;;;;;;;;;5085057;28;1324;-78
2021/12/15 08:11:51;;;;;;;;;;;;;;;;;;5077242;28;1147;-79
2021/12/15 08:14:17;;;;;;;;;;;;;;;;;;5064260;28;1024;-78
2021/12/15 08:16:43;;;;;;;;;;;;;;;;;;5065847;28;1894;-77
2021/12/15 08:19:18;;;;;;;;;;;;;;;;;;5061753;28;1348;-78
2021/12/15 08:21:43;;;;;;;;;;;;;;;;;;5084948;28;1219;-79
2021/12/15 08:24:09;;;;;;;;;;;;;;;;;;5082347;28;1385;-78
2021/12/15 08:26:34;;;;;;;;;;;;;;;;;;5080355;28;1417;-78
2021/12/15 08:29:03;;;;;;;;;;;;;;;;;;5067089;28;1264;-78
2021/12/15 08:31:29;;;;;;;;;;;;;;;;;;5081638;28;1157;-79
2021/12/15 08:33:54;;;;;;;;;;;;;;;;;;5082924;28;1140;-79
2021/12/15 08:36:21;;;;;;;;;;;;;;;;;;5070347;28;1911;-78
2021/12/15 08:38:47;;;;;;;;;;;;;;;;;;5067099;28;1221;-78
2021/12/15 08:41:18;;;;;;;;;;;;;;;;;;5083057;28;1220;-78
2021/12/15 08:43:43;;;;;;;;;;;;;;;;;;5059992;28;1246;-79
2021/12/15 08:46:12;;;;;;;;;;;;;;;;;;5063151;28;1211;-79
2021/12/15 08:48:39;;;;;;;;;;;;;;;;;;5061348;28;1218;-79
2021/12/15 08:51:05;;;;;;;;;;;;;;;;;;5077584;28;1168;-79
2021/12/15 08:53:32;;;;;;;;;;;;;;;;;;5085315;28;1171;-79
2021/12/15 08:55:57;;;;;;;;;;;;;;;;;;5082982;28;1902;-78
2021/12/15 08:58:23;;;;;;;;;;;;;;;;;;5078748;28;1199;-80
2021/12/15 09:00:51;;;;;;;;;;;;;;;;;;5083393;28;1313;-80
2021/12/15 09:03:23;;;;;;;;;;;;;;;;;;5079320;28;1270;-80
2021/12/15 09:05:51;;;;;;;;;;;;;;;;;;5070873;28;1239;-79
2021/12/15 09:08:17;;;;;;;;;;;;;;;;;;5062367;28;1089;-79
2021/12/15 09:10:45;;;;;;;;;;;;;;;;;;5065213;28;1129;-78
2021/12/15 09:13:11;;;;;;;;;;;;;;;;;;5042879;28;1337;-77
2021/12/15 09:15:37;;;;;;;;;;;;;;;;;;5069022;28;1913;-78
2021/12/15 09:18:06;;;;;;;;;;;;;;;;;;5068545;28;1211;-78
2021/12/15 09:20:32;;;;;;;;;;;;;;;;;;5050679;28;1361;-76
2021/12/15 09:22:58;;;;;;;;;;;;;;;;;;5072538;28;1277;-76
2021/12/15 09:25:24;;;;;;;;;;;;;;;;;;5063202;28;1344;-77
2021/12/15 09:27:49;;;;;;;;;;;;;;;;;;5067812;28;1235;-78
2021/12/15 09:30:17;;;;;;;;;;;;;;;;;;5044674;28;1329;-77
2021/12/15 09:32:42;;;;;;;;;;;;;;;;;;5069365;28;1296;-76
2021/12/15 09:35:09;;;;;;;;;;;;;;;;;;5076619;28;1890;-77
2021/12/15 09:37:34;;;;;;;;;;;;;;;;;;5084059;28;1187;-78
2021/12/15 09:40:00;;;;;;;;;;;;;;;;;;5084866;28;1151;-77
2021/12/15 09:42:32;;;;;;;;;;;;;;;;;;5079907;28;1328;-79
2021/12/15 09:45:04;;;;;;;;;;;;;;;;;;5079143;28;1317;-77
2021/12/15 10:06:53;;;;;;;;;;;;;;;;;;5082299;28;1071;-79
2021/12/15 10:19:51;;;;;;;;;;;;;;;;;;5063214;28;1234;-79
2021/12/15 10:22:45;;;;;;;;;;;;;;;;;;5062172;28;1450;-78
2021/12/15 10:25:20;;;;;;;;;;;;;;;;;;5059782;28;1324;-79
2021/12/15 10:28:15;;;;;;;;;;;;;;;;;;5060352;28;1294;-80
2021/12/15 10:30:40;;;;;;;;;;;;;;;;;;5072929;28;1446;-80
2021/12/15 10:33:11;;;;;;;;;;;;;;;;;;5083409;28;1167;-80
2021/12/15 10:35:39;;;;;;;;;;;;;;;;;;5082061;28;1941;-78
2021/12/15 10:38:16;;;;;;;;;;;;;;;;;;5083943;28;1265;-79
2021/12/15 10:40:44;;;;;;;;;;;;;;;;;;5083305;28;1356;-79
2021/12/15 10:43:19;;;;;;;;;;;;;;;;;;5082618;28;1175;-80
2021/12/15 10:45:49;;;;;;;;;;;;;;;;;;5082268;28;1158;-80
2021/12/15 10:48:36;;;;;;;;;;;;;;;;;;5079083;28;1199;-80
2021/12/15 10:51:18;;;;;;;;;;;;;;;;;;5083024;28;1142;-78
2021/12/15 10:53:44;;;;;;;;;;;;;;;;;;5083037;28;1192;-77
2021/12/15 10:56:14;;;;;;;;;;;;;;;;;;5081142;28;1890;-76
2021/12/15 10:58:44;;;;;;;;;;;;;;;;;;5061629;28;1071;-77
2021/12/15 11:01:28;;;;;;;;;;;;;;;;;;5060811;28;1197;-77
2021/12/15 11:03:53;;;;;;;;;;;;;;;;;;5063293;28;1154;-77
2021/12/15 11:06:27;;;;;;;;;;;;;;;;;;5058540;28;1261;-78
2021/12/15 11:09:19;;;;;;;;;;;;;;;;;;5062979;28;1089;-80
2021/12/15 11:12:06;;;;;;;;;;;;;;;;;;5059989;28;1313;-80
2021/12/15 11:14:33;;;;;;;;;;;;;;;;;;5059814;28;1266;-80
2021/12/15 11:17:04;;;;;;;;;;;;;;;;;;5062866;28;1226;-82
2021/12/15 11:19:44;;;;;;;;;;;;;;;;;;5062419;28;1289;-81
2021/12/15 11:22:28;;;;;;;;;;;;;;;;;;5069075;28;1321;-81
2021/12/15 11:24:53;;;;;;;;;;;;;;;;;;5066558;28;1218;-81
2021/12/15 11:27:18;;;;;;;;;;;;;;;;;;5062927;28;1199;-81
2021/12/15 11:29:44;;;;;;;;;;;;;;;;;;5068222;28;1352;-81
2021/12/15 11:32:28;;;;;;;;;;;;;;;;;;5071123;28;1296;-81
2021/12/15 11:35:01;;;;;;;;;;;;;;;;;;5062473;28;1975;-80
2021/12/15 11:38:02;;;;;;;;;;;;;;;;;;5068910;28;1262;-80
2021/12/15 11:40:34;;;;;;;;;;;;;;;;;;5045571;28;1520;-81
2021/12/15 11:42:59;;;;;;;;;;;;;;;;;;5064255;28;1097;-80
2021/12/15 11:45:25;;;;;;;;;;;;;;;;;;5073528;28;1666;-80
2021/12/15 11:48:21;;;;;;;;;;;;;;;;;;5066149;28;1191;-79
2021/12/15 11:50:48;;;;;;;;;;;;;;;;;;5064947;28;1448;-79
2021/12/15 11:53:21;;;;;;;;;;;;;;;;;;5070423;28;1339;-80
2021/12/15 11:55:47;;;;;;;;;;;;;;;;;;5087864;28;1894;-79
2021/12/15 11:58:32;;;;;;;;;;;;;;;;;;5070400;28;1104;-80
2021/12/15 12:00:58;;;;;;;;;;;;;;;;;;5063685;28;1300;-80
2021/12/15 12:03:23;;;;;;;;;;;;;;;;;;5065311;28;1240;-81
2021/12/15 12:05:48;;;;;;;;;;;;;;;;;;5055636;28;1253;-80
2021/12/15 12:08:17;;;;;;;;;;;;;;;;;;5089052;28;1187;-79
2021/12/15 12:10:49;;;;;;;;;;;;;;;;;;5058884;28;1365;-79
2021/12/15 12:13:25;;;;;;;;;;;;;;;;;;5062883;28;1430;-80
2021/12/15 12:16:04;;;;;;;;;;;;;;;;;;5085417;28;1902;-79
2021/12/15 12:18:30;;;;;;;;;;;;;;;;;;5080801;28;1270;-79
2021/12/15 12:20:57;;;;;;;;;;;;;;;;;;5063974;28;1234;-80
2021/12/15 12:23:25;;;;;;;;;;;;;;;;;;5081911;28;1445;-78
2021/12/15 12:25:56;;;;;;;;;;;;;;;;;;5080292;28;1269;-79
2021/12/15 12:28:41;;;;;;;;;;;;;;;;;;5059406;28;1151;-79
2021/12/15 12:31:10;;;;;;;;;;;;;;;;;;5064976;28;1081;-79
2021/12/15 12:33:36;;;;;;;;;;;;;;;;;;5062055;28;1203;-79
2021/12/15 12:36:04;;;;;;;;;;;;;;;;;;5045104;28;1971;-80
2021/12/15 12:38:30;;;;;;;;;;;;;;;;;;5062027;28;1238;-80
2021/12/15 12:40:56;;;;;;;;;;;;;;;;;;5065616;28;1195;-79
2021/12/15 12:43:23;;;;;;;;;;;;;;;;;;5062831;28;1144;-80
2021/12/15 12:45:53;;;;;;;;;;;;;;;;;;5069763;28;1179;-79
2021/12/15 12:59:35;;;;;;;;;;;;;;;;;;5062468;28;1080;-78
2021/12/15 13:02:01;;;;;;;;;;;;;;;;;;5066619;28;1172;-78
2021/12/15 13:04:43;;;;;;;;;;;;;;;;;;5057223;28;1180;-79
2021/12/15 13:07:09;;;;;;;;;;;;;;;;;;5065378;28;1065;-78
2021/12/15 13:09:45;;;;;;;;;;;;;;;;;;5063707;28;1081;-79
2021/12/15 13:12:40;;;;;;;;;;;;;;;;;;5063805;28;1197;-79
2021/12/15 13:15:07;;;;;;;;;;;;;;;;;;5064245;28;1980;-79
2021/12/15 13:17:36;;;;;;;;;;;;;;;;;;5063952;28;1124;-79
2021/12/15 13:20:03;;;;;;;;;;;;;;;;;;5057316;28;1269;-79
2021/12/15 13:29:01;;;;;;;;;;;;;;;;;;5061519;28;1001;-80
2021/12/15 13:30:58;;;;;;;;;;;;;;;;;;5059961;28;1271;-79
2021/12/15 13:33:29;;;;;;;;;;;;;;;;;;5061826;28;1184;-79
2021/12/15 13:35:56;;;;;;;;;;;;;;;;;;5060332;28;1917;-79
2021/12/15 13:38:31;;;;;;;;;;;;;;;;;;5063687;28;1459;-79
2021/12/15 13:41:07;;;;;;;;;;;;;;;;;;5064208;28;1325;-78
2021/12/15 13:43:40;;;;;;;;;;;;;;;;;;5061618;28;1362;-79
2021/12/15 13:46:09;;;;;;;;;;;;;;;;;;5064560;28;1349;-79
2021/12/15 13:48:54;;;;;;;;;;;;;;;;;;5059410;28;1335;-79
2021/12/15 13:51:38;;;;;;;;;;;;;;;;;;5061498;28;1370;-77
2021/12/15 13:54:19;;;;;;;;;;;;;;;;;;5063935;28;1210;-78
2021/12/15 13:56:46;;;;;;;;;;;;;;;;;;5071387;28;1947;-79
2021/12/15 13:59:35;;;;;;;;;;;;;;;;;;5083404;28;1285;-79
2021/12/15 14:02:12;;;;;;;;;;;;;;;;;;5082719;28;1186;-79
2021/12/15 14:04:44;;;;;;;;;;;;;;;;;;5078205;28;1108;-79
2021/12/15 14:07:28;;;;;;;;;;;;;;;;;;5085026;28;1195;-78
2021/12/15 14:09:54;;;;;;;;;;;;;;;;;;5083980;28;1101;-79
2021/12/15 14:12:38;;;;;;;;;;;;;;;;;;5084013;28;1307;-80
2021/12/15 14:15:03;;;;;;;;;;;;;;;;;;5083110;28;1944;-79
2021/12/15 14:17:28;;;;;;;;;;;;;;;;;;5080261;28;1372;-79
2021/12/15 14:19:54;;;;;;;;;;;;;;;;;;5078151;28;1215;-79
2021/12/15 14:22:19;;;;;;;;;;;;;;;;;;5066265;28;1327;-80
2021/12/15 14:24:44;;;;;;;;;;;;;;;;;;5063004;28;1103;-79
2021/12/15 14:27:10;;;;;;;;;;;;;;;;;;5076462;28;1253;-77
2021/12/15 14:29:36;;;;;;;;;;;;;;;;;;5055464;28;1145;-83
2021/12/15 14:32:03;;;;;;;;;;;;;;;;;;5069859;28;1340;-81
2021/12/15 14:34:33;;;;;;;;;;;;;;;;;;5070890;28;1144;-82
2021/12/15 14:37:09;;;;;;;;;;;;;;;;;;5074230;28;1959;-85
2021/12/15 14:39:36;;;;;;;;;;;;;;;;;;5070030;28;1270;-90
2021/12/15 14:42:03;;;;;;;;;;;;;;;;;;5067832;28;1242;-83
2021/12/15 14:44:30;;;;;;;;;;;;;;;;;;5062582;28;1303;-82
2021/12/15 14:46:57;;;;;;;;;;;;;;;;;;5063071;28;1129;-82
2021/12/15 14:49:32;;;;;;;;;;;;;;;;;;5069057;28;1213;-84
2021/12/15 14:51:59;;;;;;;;;;;;;;;;;;5076868;28;1145;-83
2021/12/15 14:54:34;;;;;;;;;;;;;;;;;;5077442;28;1506;-85
2021/12/15 14:57:02;;;;;;;;;;;;;;;;;;5063615;28;1889;-83
2021/12/15 14:59:38;;;;;;;;;;;;;;;;;;5075942;28;1288;-85
2021/12/15 15:02:12;;;;;;;;;;;;;;;;;;5078678;28;1288;-84
2021/12/15 15:04:39;;;;;;;;;;;;;;;;;;5061919;28;1146;-80
2021/12/15 15:07:07;;;;;;;;;;;;;;;;;;5070903;28;1204;-78
2021/12/15 15:09:37;;;;;;;;;;;;;;;;;;5074494;28;1245;-84
2021/12/15 15:12:25;;;;;;;;;;;;;;;;;;5075092;28;1228;-81
2021/12/15 15:14:52;;;;;;;;;;;;;;;;;;5071762;28;1937;-85
2021/12/15 15:17:25;;;;;;;;;;;;;;;;;;5062349;28;1161;-81
2021/12/15 15:19:52;;;;;;;;;;;;;;;;;;5064501;28;1292;-82
2021/12/15 15:22:24;;;;;;;;;;;;;;;;;;5075197;28;1222;-80
2021/12/15 15:24:50;;;;;;;;;;;;;;;;;;5062628;28;1128;-82
2021/12/15 15:27:17;;;;;;;;;;;;;;;;;;5062139;28;1181;-87
2021/12/15 15:29:46;;;;;;;;;;;;;;;;;;5077605;28;1195;-78
2021/12/15 15:32:24;;;;;;;;;;;;;;;;;;5081115;28;1228;-80
2021/12/15 15:34:52;;;;;;;;;;;;;;;;;;5062941;28;1941;-79
2021/12/15 15:37:24;;;;;;;;;;;;;;;;;;5064577;28;1422;-80
2021/12/15 15:40:07;;;;;;;;;;;;;;;;;;5065660;28;1310;-80
2021/12/15 15:42:33;;;;;;;;;;;;;;;;;;5064009;28;1186;-79
2021/12/15 15:44:58;;;;;;;;;;;;;;;;;;5047979;28;1361;-79
2021/12/15 15:47:24;;;;;;;;;;;;;;;;;;5065639;28;1172;-79
2021/12/15 15:49:50;;;;;;;;;;;;;;;;;;5041489;28;1273;-81
2021/12/15 15:52:16;;;;;;;;;;;;;;;;;;5066367;28;1199;-80
2021/12/15 15:54:41;;;;;;;;;;;;;;;;;;5044449;28;1188;-79
2021/12/15 15:57:06;;;;;;;;;;;;;;;;;;5063637;28;1911;-79
2021/12/15 15:59:36;;;;;;;;;;;;;;;;;;5047105;28;1313;-80
2021/12/15 16:02:03;;;;;;;;;;;;;;;;;;5065296;28;1305;-78
2021/12/15 16:04:29;;;;;;;;;;;;;;;;;;5059900;28;1251;-79
2021/12/15 16:06:54;;;;;;;;;;;;;;;;;;5044776;28;1239;-82
2021/12/15 16:09:21;;;;;;;;;;;;;;;;;;5067134;28;1231;-79
2021/12/15 16:11:48;;;;;;;;;;;;;;;;;;5061883;28;1151;-80
2021/12/15 16:14:14;;;;;;;;;;;;;;;;;;5082305;28;1336;-78
2021/12/15 16:16:53;;;;;;;;;;;;;;;;;;5082361;28;1906;-80
2021/12/15 16:19:27;;;;;;;;;;;;;;;;;;5060632;28;1313;-79
2021/12/15 16:24:39;;;;;;;;;;;;;;;;;;5063382;28;993;-79
2021/12/15 16:27:05;;;;;;;;;;;;;;;;;;5062052;28;1340;-80
2021/12/15 16:29:30;;;;;;;;;;;;;;;;;;5065182;28;1215;-79
2021/12/15 16:32:00;;;;;;;;;;;;;;;;;;5060426;28;1215;-80
2021/12/15 16:34:31;;;;;;;;;;;;;;;;;;5062551;28;1060;-84
2021/12/15 16:36:57;;;;;;;;;;;;;;;;;;5062442;28;1906;-79
2021/12/15 16:39:25;;;;;;;;;;;;;;;;;;5046926;28;1199;-80
2021/12/15 16:41:52;;;;;;;;;;;;;;;;;;5059506;28;1269;-79
2021/12/15 16:44:22;;;;;;;;;;;;;;;;;;5064784;28;1399;-80
2021/12/15 16:46:58;;;;;;;;;;;;;;;;;;5063630;28;1215;-81
2021/12/15 16:49:37;;;;;;;;;;;;;;;;;;5076718;28;1206;-79
2021/12/15 16:52:12;;;;;;;;;;;;;;;;;;5083487;28;1343;-81
2021/12/15 16:54:43;;;;;;;;;;;;;;;;;;5087324;28;1237;-80
2021/12/15 16:57:14;;;;;;;;;;;;;;;;;;5079175;28;1951;-82
2021/12/15 17:00:00;;;;;;;;;;;;;;;;;;5061901;28;1507;-82
2021/12/15 17:02:39;;;;;;;;;;;;;;;;;;5065595;28;1105;-82
2021/12/15 17:05:09;;;;;;;;;;;;;;;;;;5079174;28;1258;-82
2021/12/15 17:07:37;;;;;;;;;;;;;;;;;;5085124;28;1109;-82
2021/12/15 17:10:08;;;;;;;;;;;;;;;;;;5083210;28;1440;-81
2021/12/15 17:12:35;;;;;;;;;;;;;;;;;;5083095;28;1354;-81
2021/12/15 17:15:06;;;;;;;;;;;;;;;;;;5080677;28;1947;-81
2021/12/15 17:17:38;;;;;;;;;;;;;;;;;;5079398;28;1304;-81
2021/12/15 17:20:06;;;;;;;;;;;;;;;;;;5079657;28;1134;-81
2021/12/15 17:22:41;;;;;;;;;;;;;;;;;;5085769;28;1294;-81
2021/12/15 17:25:11;;;;;;;;;;;;;;;;;;5082517;28;1215;-82
2021/12/15 17:27:52;;;;;;;;;;;;;;;;;;5083491;28;1139;-80
2021/12/15 17:30:24;;;;;;;;;;;;;;;;;;5085455;28;1238;-81
2021/12/15 17:32:50;;;;;;;;;;;;;;;;;;5081722;28;1158;-82
2021/12/15 17:35:19;;;;;;;;;;;;;;;;;;5082318;28;1910;-81
2021/12/15 17:37:44;;;;;;;;;;;;;;;;;;5045684;28;1203;-81
2021/12/15 17:40:09;;;;;;;;;;;;;;;;;;5064365;28;1136;-81
2021/12/15 17:42:34;;;;;;;;;;;;;;;;;;5064695;28;1172;-81
2021/12/15 17:45:06;;;;;;;;;;;;;;;;;;5062717;28;1467;-81
2021/12/15 17:47:34;;;;;;;;;;;;;;;;;;5065399;28;1140;-81
2021/12/15 17:50:00;;;;;;;;;;;;;;;;;;5059530;28;1116;-81
2021/12/15 17:52:31;;;;;;;;;;;;;;;;;;5064474;28;1354;-82
2021/12/15 17:55:03;;;;;;;;;;;;;;;;;;5061868;28;1962;-81
2021/12/15 17:57:32;;;;;;;;;;;;;;;;;;5063773;28;1274;-80
2021/12/15 17:59:58;;;;;;;;;;;;;;;;;;5071289;28;1116;-81
2021/12/15 18:02:24;;;;;;;;;;;;;;;;;;5046950;28;1171;-81
2021/12/15 18:04:53;;;;;;;;;;;;;;;;;;5058902;28;1224;-81
2021/12/15 18:07:19;;;;;;;;;;;;;;;;;;5067075;28;1381;-81
2021/12/15 18:09:47;;;;;;;;;;;;;;;;;;5045201;28;1432;-81
2021/12/15 18:12:15;;;;;;;;;;;;;;;;;;5070726;28;1863;-81
2021/12/15 18:14:42;;;;;;;;;;;;;;;;;;5082260;28;1332;-81
2021/12/15 18:17:10;;;;;;;;;;;;;;;;;;5082303;28;1958;-81
2021/12/15 18:19:35;;;;;;;;;;;;;;;;;;5077572;28;1186;-81
2021/12/15 18:22:01;;;;;;;;;;;;;;;;;;5081361;28;1297;-81
2021/12/15 18:24:26;;;;;;;;;;;;;;;;;;5083697;28;1168;-81
2021/12/15 18:26:53;;;;;;;;;;;;;;;;;;5080341;28;1171;-81
2021/12/15 18:29:20;;;;;;;;;;;;;;;;;;5062214;28;1178;-81
2021/12/15 18:31:48;;;;;;;;;;;;;;;;;;5062149;28;1241;-81
2021/12/15 18:34:15;;;;;;;;;;;;;;;;;;5058937;28;1428;-81
2021/12/15 18:36:42;;;;;;;;;;;;;;;;;;5046574;28;1964;-81
2021/12/15 18:39:09;;;;;;;;;;;;;;;;;;5061078;28;1183;-81
2021/12/15 18:41:34;;;;;;;;;;;;;;;;;;5061644;28;1113;-81
2021/12/15 18:44:03;;;;;;;;;;;;;;;;;;5060143;28;1182;-81
2021/12/15 18:46:29;;;;;;;;;;;;;;;;;;5063047;28;1351;-81
2021/12/15 18:48:57;;;;;;;;;;;;;;;;;;5059288;28;1292;-82